Time;durP1;ratioP1;P1;durP2;ratioP2;P2;SDS_P1;SDS_P2;PMS_P1;PMS_P2;Temp;Humidity;BMP_temperature;BMP_pressure;BME280_temperature;BME280_humidity;BME280_pressure;Samples;Min_cycle;Max_cycle;Signal;HPM_P1;HPM_P2
2022/02/17 00:00:41;;;;;;;0.57;0.50;;;13.00;88.10;;;;;;4965516;28;20223;-73
2022/02/17 00:03:07;;;;;;;0.60;0.50;;;13.10;87.40;;;;;;4969237;28;20888;-72
2022/02/17 00:05:33;;;;;;;0.60;0.60;;;13.10;86.80;;;;;;4977110;28;20438;-73
2022/02/17 00:08:00;;;;;;;0.80;0.50;;;13.20;86.30;;;;;;4974246;28;20570;-73
2022/02/17 00:10:26;;;;;;;0.67;0.50;;;13.30;85.70;;;;;;4972142;28;20486;-71
2022/02/17 00:12:54;;;;;;;0.63;0.50;;;13.40;85.00;;;;;;4969721;28;20928;-73
2022/02/17 00:15:20;;;;;;;1.07;0.50;;;13.40;84.90;;;;;;4968248;28;20968;-71
2022/02/17 00:17:46;;;;;;;1.13;0.60;;;13.50;84.40;;;;;;4967675;28;20482;-72
2022/02/17 00:20:12;;;;;;;0.57;0.47;;;13.50;83.80;;;;;;4966250;28;20434;-73
2022/02/17 00:22:38;;;;;;;0.60;0.50;;;13.60;83.70;;;;;;4964191;28;20430;-73
2022/02/17 00:25:05;;;;;;;1.87;0.60;;;13.60;83.40;;;;;;4968582;28;20430;-72
2022/02/17 00:27:31;;;;;;;1.27;0.40;;;13.60;83.60;;;;;;4961519;28;20443;-71
2022/02/17 00:29:57;;;;;;;0.77;0.50;;;13.60;83.60;;;;;;4962846;28;20431;-73
2022/02/17 00:32:23;;;;;;;0.77;0.50;;;13.60;83.40;;;;;;4972321;28;20446;-74
2022/02/17 00:34:48;;;;;;;0.57;0.47;;;13.60;83.60;;;;;;4965358;28;20434;-75
2022/02/17 00:37:14;;;;;;;0.83;0.47;;;13.60;83.40;;;;;;4966602;28;20207;-71
2022/02/17 00:39:40;;;;;;;0.90;0.43;;;13.60;83.40;;;;;;4966211;28;20231;-71
2022/02/17 00:42:06;;;;;;;0.60;0.47;;;13.60;83.40;;;;;;4964873;28;20203;-73
2022/02/17 00:44:32;;;;;;;1.27;0.50;;;13.60;83.30;;;;;;4967007;28;20215;-72
2022/02/17 00:46:58;;;;;;;0.60;0.40;;;13.60;83.30;;;;;;4969535;28;20851;-73
2022/02/17 00:49:26;;;;;;;0.50;0.50;;;13.60;83.30;;;;;;4969522;28;20230;-74
2022/02/17 00:51:52;;;;;;;0.80;0.50;;;13.60;83.30;;;;;;4969379;28;20548;-72
2022/02/17 00:54:18;;;;;;;0.70;0.50;;;13.60;83.40;;;;;;4973702;28;20426;-74
2022/02/17 00:56:44;;;;;;;0.73;0.53;;;13.60;83.60;;;;;;4962665;28;20471;-75
2022/02/17 00:59:11;;;;;;;0.60;0.43;;;13.60;83.80;;;;;;4967212;28;20421;-76
2022/02/17 01:01:37;;;;;;;1.00;0.47;;;13.60;84.00;;;;;;4959327;28;20494;-73
2022/02/17 01:04:03;;;;;;;0.60;0.40;;;13.60;84.10;;;;;;4959763;28;20474;-73
2022/02/17 01:06:29;;;;;;;1.10;0.60;;;13.60;84.10;;;;;;4960496;28;20940;-72
2022/02/17 01:08:55;;;;;;;0.70;0.40;;;13.50;84.90;;;;;;4966914;28;20419;-72
2022/02/17 01:11:21;;;;;;;0.60;0.40;;;13.50;85.20;;;;;;4962004;28;20244;-72
2022/02/17 01:13:46;;;;;;;1.10;0.63;;;13.40;86.20;;;;;;4965574;28;20192;-72
2022/02/17 01:16:12;;;;;;;0.50;0.50;;;13.30;87.10;;;;;;4968601;28;20561;-75
2022/02/17 01:18:38;;;;;;;0.50;0.40;;;13.10;88.60;;;;;;4962960;28;21001;-72
2022/02/17 01:21:04;;;;;;;1.13;0.60;;;12.90;89.60;;;;;;4967996;28;20209;-74
2022/02/17 01:23:29;;;;;;;0.50;0.50;;;12.80;90.10;;;;;;4960115;28;20187;-73
2022/02/17 01:25:55;;;;;;;2.30;0.90;;;12.70;90.40;;;;;;4966097;28;20238;-73
2022/02/17 01:28:21;;;;;;;0.60;0.40;;;12.70;90.50;;;;;;4965989;28;20189;-73
2022/02/17 01:30:47;;;;;;;0.50;0.40;;;12.60;90.60;;;;;;4965588;28;20207;-73
2022/02/17 01:33:12;;;;;;;1.00;0.50;;;12.60;90.40;;;;;;4964057;28;20214;-75
2022/02/17 01:35:38;;;;;;;0.60;0.43;;;12.70;90.10;;;;;;4963545;28;21133;-74
2022/02/17 01:38:04;;;;;;;0.80;0.50;;;12.60;90.10;;;;;;4961479;28;20194;-75
2022/02/17 01:40:30;;;;;;;1.17;0.60;;;12.70;90.10;;;;;;4964131;28;20190;-75
2022/02/17 01:42:56;;;;;;;1.03;0.63;;;12.70;89.90;;;;;;4969780;28;20419;-75
2022/02/17 01:45:22;;;;;;;1.20;0.43;;;12.70;90.30;;;;;;4962113;28;20411;-73
2022/02/17 01:47:49;;;;;;;1.27;0.50;;;12.60;90.70;;;;;;4969648;28;20437;-76
2022/02/17 01:50:15;;;;;;;0.70;0.50;;;12.50;90.90;;;;;;4968007;28;20193;-72
2022/02/17 01:52:41;;;;;;;0.87;0.50;;;12.50;91.00;;;;;;4971682;28;20471;-74
2022/02/17 01:55:08;;;;;;;1.30;0.60;;;12.50;91.00;;;;;;4969632;28;20427;-73
2022/02/17 01:57:34;;;;;;;1.00;0.50;;;12.40;91.80;;;;;;4970078;28;20466;-75
2022/02/17 02:00:00;;;;;;;1.37;0.53;;;12.30;92.30;;;;;;4963109;28;20426;-74
2022/02/17 02:02:27;;;;;;;0.90;0.50;;;12.20;92.70;;;;;;4961992;28;20443;-74
2022/02/17 02:04:53;;;;;;;0.93;0.50;;;12.10;93.20;;;;;;4969407;28;21049;-75
2022/02/17 02:07:19;;;;;;;0.90;0.50;;;12.00;93.50;;;;;;4960345;28;20538;-74
2022/02/17 02:09:45;;;;;;;0.70;0.57;;;11.90;93.90;;;;;;4968279;28;20430;-74
2022/02/17 02:12:11;;;;;;;0.50;0.40;;;11.90;94.00;;;;;;4965640;28;20447;-76
2022/02/17 02:14:49;;;;;;;0.70;0.50;;;11.90;93.80;;;;;;4971509;28;20423;-74
2022/02/17 02:17:14;;;;;;;0.70;0.60;;;11.90;93.70;;;;;;4971582;28;20211;-74
2022/02/17 02:19:40;;;;;;;0.50;0.40;;;11.90;93.70;;;;;;4975893;28;20450;-72
2022/02/17 02:22:06;;;;;;;0.60;0.60;;;11.90;93.60;;;;;;4974432;28;20203;-73
2022/02/17 02:24:33;;;;;;;1.90;0.50;;;12.00;93.60;;;;;;4968164;28;20233;-74
2022/02/17 02:26:58;;;;;;;0.60;0.50;;;11.90;93.70;;;;;;4969566;28;20229;-74
2022/02/17 02:29:24;;;;;;;0.93;0.53;;;11.90;93.90;;;;;;4965636;28;20423;-73
2022/02/17 02:31:50;;;;;;;0.90;0.50;;;11.90;93.90;;;;;;4968682;28;20203;-74
2022/02/17 02:34:15;;;;;;;0.63;0.57;;;11.90;94.30;;;;;;4973893;28;20187;-73
2022/02/17 02:36:41;;;;;;;0.60;0.50;;;11.80;94.70;;;;;;4966863;28;20277;-75
2022/02/17 02:39:07;;;;;;;1.10;0.57;;;11.80;94.60;;;;;;4970965;28;20226;-74
2022/02/17 02:41:32;;;;;;;0.63;0.53;;;11.70;94.90;;;;;;4964127;28;20200;-72
2022/02/17 02:43:59;;;;;;;0.90;0.57;;;11.70;95.00;;;;;;4967912;28;20219;-74
2022/02/17 02:46:25;;;;;;;0.67;0.50;;;11.70;95.10;;;;;;4968327;28;20175;-73
2022/02/17 02:48:51;;;;;;;0.67;0.53;;;11.70;95.00;;;;;;4974183;28;20441;-72
2022/02/17 02:51:17;;;;;;;4.40;0.80;;;11.70;94.90;;;;;;4967197;28;20550;-71
2022/02/17 02:53:42;;;;;;;0.60;0.50;;;11.80;94.90;;;;;;4967638;28;20187;-74
2022/02/17 02:56:08;;;;;;;0.57;0.40;;;11.80;94.80;;;;;;4973148;28;20218;-73
2022/02/17 02:58:35;;;;;;;0.90;0.50;;;11.80;94.80;;;;;;4974278;28;20183;-72
2022/02/17 03:01:01;;;;;;;0.50;0.43;;;11.80;94.70;;;;;;4976322;28;20831;-74
2022/02/17 03:03:27;;;;;;;0.60;0.47;;;11.80;94.60;;;;;;4974007;28;20433;-73
2022/02/17 03:05:53;;;;;;;1.80;0.50;;;11.80;94.40;;;;;;4980728;28;20839;-73
2022/02/17 03:08:19;;;;;;;1.13;0.53;;;11.90;94.40;;;;;;4973059;28;20479;-72
2022/02/17 03:10:45;;;;;;;0.60;0.50;;;11.90;94.10;;;;;;4969422;28;20214;-74
2022/02/17 03:13:10;;;;;;;0.50;0.47;;;11.90;94.20;;;;;;4966993;28;20266;-73
2022/02/17 03:15:36;;;;;;;0.83;0.50;;;11.90;94.00;;;;;;4967048;28;20714;-71
2022/02/17 03:18:02;;;;;;;0.50;0.40;;;12.00;93.80;;;;;;4964326;28;20666;-75
2022/02/17 03:20:28;;;;;;;1.00;0.57;;;12.00;93.80;;;;;;4967403;28;20186;-74
2022/02/17 03:22:53;;;;;;;1.83;0.50;;;12.00;93.80;;;;;;4960844;28;20563;-72
2022/02/17 03:25:19;;;;;;;1.30;0.50;;;12.00;93.60;;;;;;4972801;28;20183;-73
2022/02/17 03:27:45;;;;;;;1.50;0.90;;;12.00;93.60;;;;;;4973659;28;20195;-72
2022/02/17 03:30:12;;;;;;;0.73;0.50;;;12.00;93.50;;;;;;4973793;28;20503;-71
2022/02/17 03:32:38;;;;;;;0.60;0.50;;;12.00;93.60;;;;;;4978055;28;20709;-71
2022/02/17 03:35:05;;;;;;;2.37;0.40;;;12.00;93.80;;;;;;4992036;28;20428;-71
2022/02/17 03:37:32;;;;;;;1.70;0.50;;;12.00;93.80;;;;;;4981865;28;20606;-72
2022/02/17 03:39:57;;;;;;;0.60;0.50;;;12.00;93.80;;;;;;4979819;28;20963;-72
2022/02/17 03:42:23;;;;;;;0.60;0.50;;;12.00;94.00;;;;;;4976491;28;20474;-71
2022/02/17 03:44:49;;;;;;;0.60;0.40;;;11.90;94.00;;;;;;4973976;28;20231;-71
2022/02/17 03:47:15;;;;;;;0.60;0.40;;;12.00;94.00;;;;;;4967606;28;20426;-70
2022/02/17 03:49:41;;;;;;;0.50;0.50;;;12.00;93.80;;;;;;4972713;28;20188;-72
2022/02/17 03:52:07;;;;;;;0.70;0.50;;;12.00;93.60;;;;;;4969920;28;20203;-72
2022/02/17 03:54:33;;;;;;;0.97;0.60;;;12.10;93.50;;;;;;4967735;28;20529;-71
2022/02/17 03:56:59;;;;;;;1.63;0.50;;;12.10;93.40;;;;;;4971573;28;20289;-71
2022/02/17 03:59:25;;;;;;;0.70;0.40;;;12.10;93.20;;;;;;4972735;28;20558;-71
2022/02/17 04:01:59;;;;;;;2.70;0.50;;;12.10;93.00;;;;;;4968782;28;20227;-73
2022/02/17 04:04:25;;;;;;;0.80;0.60;;;12.20;93.00;;;;;;4963676;28;20421;-71
2022/02/17 04:06:51;;;;;;;1.03;0.50;;;12.20;92.80;;;;;;4964791;28;20427;-70
2022/02/17 04:09:16;;;;;;;1.10;0.53;;;12.20;92.90;;;;;;4969868;28;20187;-71
2022/02/17 04:11:42;;;;;;;0.93;0.40;;;12.20;92.70;;;;;;4965432;28;20317;-73
2022/02/17 04:14:08;;;;;;;0.63;0.40;;;12.30;92.80;;;;;;4970557;28;20195;-71
2022/02/17 04:16:34;;;;;;;0.50;0.40;;;12.20;93.10;;;;;;4963344;28;20622;-70
2022/02/17 04:18:59;;;;;;;0.90;0.60;;;12.20;93.10;;;;;;4969736;28;20179;-70
2022/02/17 04:21:25;;;;;;;1.30;0.47;;;12.20;93.00;;;;;;4968824;28;20257;-71
2022/02/17 04:23:52;;;;;;;3.23;0.60;;;12.30;92.70;;;;;;4969837;28;20187;-73
2022/02/17 04:26:19;;;;;;;1.27;0.47;;;12.30;92.70;;;;;;4962862;28;20442;-72
2022/02/17 04:28:46;;;;;;;0.53;0.50;;;12.30;92.60;;;;;;4971620;28;21138;-71
2022/02/17 04:31:13;;;;;;;0.60;0.40;;;12.30;92.70;;;;;;4971711;28;20871;-74
2022/02/17 04:33:40;;;;;;;0.50;0.40;;;12.30;93.00;;;;;;4970116;28;20423;-71
2022/02/17 04:36:06;;;;;;;0.53;0.47;;;12.20;93.20;;;;;;4970877;28;20783;-73
2022/02/17 04:38:32;;;;;;;0.53;0.50;;;12.20;93.30;;;;;;4961621;28;20427;-70
2022/02/17 04:43:43;;;;;;;0.70;0.50;;;12.20;93.80;;;;;;4960204;28;20507;-73
2022/02/17 04:46:10;;;;;;;0.80;0.40;;;12.10;93.80;;;;;;4971151;28;20427;-73
2022/02/17 04:48:36;;;;;;;0.63;0.50;;;12.10;93.80;;;;;;4970490;28;20427;-73
2022/02/17 04:51:03;;;;;;;0.73;0.43;;;12.10;93.50;;;;;;4972201;28;20465;-70
2022/02/17 04:53:29;;;;;;;0.70;0.40;;;12.20;93.50;;;;;;4970566;28;20427;-71
2022/02/17 04:55:54;;;;;;;0.50;0.40;;;12.20;93.60;;;;;;4970686;28;20520;-72
2022/02/17 04:58:23;;;;;;;0.50;0.40;;;12.20;93.60;;;;;;4966796;28;20423;-73
2022/02/17 05:00:49;;;;;;;0.90;0.50;;;12.10;93.80;;;;;;4970797;28;20211;-74
2022/02/17 05:03:15;;;;;;;0.73;0.50;;;12.10;93.80;;;;;;4974062;28;20430;-71
2022/02/17 05:05:41;;;;;;;0.73;0.60;;;12.10;93.80;;;;;;4970857;28;20426;-73
2022/02/17 05:08:07;;;;;;;1.30;0.60;;;12.20;93.60;;;;;;4965054;28;20849;-73
2022/02/17 05:10:33;;;;;;;2.40;0.50;;;12.20;93.50;;;;;;4970287;28;21076;-71
2022/02/17 05:12:59;;;;;;;5.30;0.50;;;12.20;93.40;;;;;;4963698;28;20509;-71
2022/02/17 05:15:24;;;;;;;0.63;0.50;;;12.20;93.50;;;;;;4968114;28;20213;-71
2022/02/17 05:17:50;;;;;;;0.70;0.50;;;12.10;93.80;;;;;;4971595;28;20835;-72
2022/02/17 05:20:16;;;;;;;0.70;0.43;;;12.10;94.10;;;;;;4972715;28;20662;-69
2022/02/17 05:22:43;;;;;;;1.47;0.50;;;12.00;94.30;;;;;;4969099;28;20805;-71
2022/02/17 05:25:09;;;;;;;1.77;0.50;;;12.00;94.30;;;;;;4965525;28;20826;-72
2022/02/17 05:27:36;;;;;;;0.60;0.50;;;12.00;94.20;;;;;;4964153;28;20434;-71
2022/02/17 05:30:02;;;;;;;2.40;0.73;;;12.10;92.60;;;;;;4971512;28;20422;-70
2022/02/17 05:32:28;;;;;;;1.27;0.50;;;12.30;91.70;;;;;;4961095;28;20452;-70
2022/02/17 05:34:53;;;;;;;1.03;0.50;;;12.40;91.10;;;;;;4965373;28;20464;-69
2022/02/17 05:37:19;;;;;;;2.30;0.50;;;12.50;90.60;;;;;;4956358;28;20218;-69
2022/02/17 05:39:45;;;;;;;0.70;0.50;;;12.50;90.70;;;;;;4970236;28;20195;-70
2022/02/17 05:42:10;;;;;;;1.37;0.40;;;12.50;90.60;;;;;;4964930;28;20209;-73
2022/02/17 05:44:36;;;;;;;1.27;0.70;;;12.50;89.70;;;;;;4972037;28;20754;-72
2022/02/17 05:47:02;;;;;;;1.27;0.70;;;12.50;90.00;;;;;;4967975;28;20242;-70
2022/02/17 05:49:28;;;;;;;2.50;0.80;;;12.50;89.50;;;;;;4972125;28;20658;-72
2022/02/17 05:51:54;;;;;;;0.83;0.60;;;12.50;89.30;;;;;;4971024;28;20541;-72
2022/02/17 05:54:19;;;;;;;1.37;0.60;;;12.60;88.30;;;;;;4967991;28;20187;-72
2022/02/17 05:56:45;;;;;;;0.90;0.57;;;12.60;87.40;;;;;;4966927;28;20219;-71
2022/02/17 05:59:11;;;;;;;1.43;0.60;;;12.60;87.80;;;;;;4979738;28;20185;-69
2022/02/17 06:01:37;;;;;;;1.87;0.60;;;12.50;85.30;;;;;;4988881;28;20262;-72
2022/02/17 06:04:02;;;;;;;2.40;0.80;;;12.60;84.90;;;;;;4979261;28;20191;-71
2022/02/17 06:06:28;;;;;;;1.27;0.80;;;12.60;83.40;;;;;;4976755;28;20558;-74
2022/02/17 06:08:54;;;;;;;1.50;0.80;;;12.60;82.50;;;;;;4979634;28;20187;-71
2022/02/17 06:11:20;;;;;;;2.40;0.70;;;12.60;82.20;;;;;;4986045;28;20321;-70
2022/02/17 06:13:45;;;;;;;2.10;0.83;;;12.60;81.80;;;;;;4985942;28;20190;-72
2022/02/17 06:16:11;;;;;;;1.80;0.80;;;12.60;81.50;;;;;;4987586;28;20218;-72
2022/02/17 06:18:37;;;;;;;2.40;0.83;;;12.60;81.40;;;;;;4986834;28;20208;-71
2022/02/17 06:21:03;;;;;;;2.87;0.97;;;12.60;81.50;;;;;;4990146;28;20211;-69
2022/02/17 06:23:28;;;;;;;2.70;1.10;;;12.50;82.10;;;;;;4984981;28;20184;-71
2022/02/17 06:25:54;;;;;;;2.90;1.23;;;12.50;83.00;;;;;;4993142;28;20182;-71
2022/02/17 06:28:20;;;;;;;5.33;1.30;;;12.30;83.40;;;;;;4985182;28;20184;-72
2022/02/17 06:30:47;;;;;;;5.43;1.10;;;12.30;83.70;;;;;;4988858;28;20700;-72
2022/02/17 06:33:13;;;;;;;5.60;2.27;;;12.20;84.40;;;;;;4979876;28;20176;-73
2022/02/17 06:35:39;;;;;;;2.30;1.27;;;12.20;84.60;;;;;;4987696;28;20492;-71
2022/02/17 06:38:06;;;;;;;4.63;1.50;;;12.10;84.70;;;;;;4988454;28;20505;-71
2022/02/17 06:40:33;;;;;;;3.17;1.10;;;12.00;85.20;;;;;;4987789;28;21117;-70
2022/02/17 06:43:19;;;;;;;11.70;3.07;;;12.00;85.60;;;;;;4986669;28;20448;-71
2022/02/17 06:45:45;;;;;;;6.30;1.77;;;11.90;85.00;;;;;;4981831;28;20952;-72
2022/02/17 06:48:11;;;;;;;2.70;1.20;;;11.90;85.20;;;;;;4984451;28;20464;-70
2022/02/17 06:50:37;;;;;;;9.93;1.40;;;11.90;85.30;;;;;;4985677;28;20458;-70
2022/02/17 06:53:04;;;;;;;2.23;1.10;;;11.90;84.60;;;;;;4975775;28;20510;-71
2022/02/17 06:55:30;;;;;;;3.90;1.63;;;11.90;84.00;;;;;;4981036;28;20454;-74
2022/02/17 06:57:56;;;;;;;5.87;1.60;;;11.90;83.80;;;;;;4985262;28;20508;-71
2022/02/17 07:00:22;;;;;;;7.77;1.80;;;11.90;82.80;;;;;;4980157;28;20204;-70
2022/02/17 07:02:52;;;;;;;3.40;1.80;;;11.80;83.00;;;;;;4987533;28;20185;-72
2022/02/17 07:05:22;;;;;;;4.17;1.77;;;11.80;82.70;;;;;;4982034;28;20442;-70
2022/02/17 07:07:49;;;;;;;7.00;1.90;;;11.80;82.20;;;;;;4985360;28;20925;-70
2022/02/17 07:10:54;;;;;;;4.60;1.67;;;11.80;81.50;;;;;;4989216;28;20471;-72
2022/02/17 07:13:02;;;;;;;5.63;2.00;;;11.80;81.20;;;;;;4989392;28;20942;-73
2022/02/17 07:15:30;;;;;;;8.03;2.00;;;11.80;80.30;;;;;;4986425;28;20433;-71
2022/02/17 07:17:56;;;;;;;10.37;1.83;;;11.80;80.20;;;;;;4990347;28;20466;-73
2022/02/17 07:20:22;;;;;;;5.73;2.30;;;11.90;80.00;;;;;;4986265;28;20520;-71
2022/02/17 07:22:48;;;;;;;7.90;1.70;;;11.90;80.30;;;;;;4986089;28;20894;-72
2022/02/17 07:25:14;;;;;;;8.93;2.03;;;11.80;81.10;;;;;;4971241;28;20431;-74
2022/02/17 07:27:39;;;;;;;10.40;1.97;;;11.80;82.10;;;;;;4974495;28;20775;-71
2022/02/17 07:30:06;;;;;;;6.30;1.70;;;11.70;82.50;;;;;;4981341;28;20174;-71
2022/02/17 07:32:31;;;;;;;10.03;2.17;;;11.60;82.70;;;;;;4977427;28;20211;-71
2022/02/17 07:34:57;;;;;;;5.50;1.80;;;11.60;83.30;;;;;;4979096;28;20791;-72
2022/02/17 07:37:23;;;;;;;8.10;1.90;;;11.60;83.80;;;;;;4983705;28;20234;-71
2022/02/17 07:39:49;;;;;;;8.23;2.07;;;11.50;83.70;;;;;;4985818;28;20186;-70
2022/02/17 07:42:15;;;;;;;9.10;2.10;;;11.50;84.00;;;;;;4986569;28;20210;-72
2022/02/17 07:44:42;;;;;;;4.13;1.70;;;11.50;84.00;;;;;;4941439;28;1242227;-74
2022/02/17 07:47:07;;;;;;;4.03;1.73;;;11.50;83.60;;;;;;4977195;28;20666;-72
2022/02/17 07:49:33;;;;;;;6.23;2.33;;;11.60;80.80;;;;;;4984178;28;20434;-71
2022/02/17 07:51:59;;;;;;;7.13;1.50;;;11.70;80.90;;;;;;4991757;28;20245;-73
2022/02/17 07:54:25;;;;;;;4.30;1.93;;;11.70;78.40;;;;;;4989641;28;20191;-73
2022/02/17 07:56:51;;;;;;;8.37;1.80;;;11.80;76.70;;;;;;4995900;28;20466;-73
2022/02/17 07:59:17;;;;;;;14.27;2.23;;;11.90;75.50;;;;;;4979045;28;20440;-72
2022/02/17 08:01:43;;;;;;;10.67;1.87;;;11.90;75.10;;;;;;4986296;28;20488;-71
2022/02/17 08:04:09;;;;;;;9.07;1.70;;;12.00;75.40;;;;;;4995552;28;20186;-74
2022/02/17 08:06:35;;;;;;;4.73;2.17;;;12.00;75.50;;;;;;4985499;28;20210;-74
2022/02/17 08:09:00;;;;;;;4.67;1.70;;;12.00;75.40;;;;;;4975110;28;20175;-73
2022/02/17 08:11:26;;;;;;;9.97;2.60;;;12.00;74.90;;;;;;4980089;28;20213;-73
2022/02/17 08:13:53;;;;;;;7.40;1.20;;;12.00;74.80;;;;;;4981859;28;20186;-74
2022/02/17 08:16:20;;;;;;;12.40;1.97;;;12.10;73.20;;;;;;4983668;28;20470;-74
2022/02/17 08:18:45;;;;;;;5.70;2.10;;;12.20;72.90;;;;;;4980873;28;20426;-74
2022/02/17 08:21:11;;;;;;;3.77;1.73;;;12.30;72.60;;;;;;4977774;28;20445;-74
2022/02/17 08:23:37;;;;;;;6.83;1.70;;;12.30;72.00;;;;;;4975547;28;20238;-73
2022/02/17 08:26:03;;;;;;;19.80;2.60;;;12.30;72.10;;;;;;4976032;28;20215;-73
2022/02/17 08:28:29;;;;;;;14.57;2.40;;;12.30;71.40;;;;;;4972484;28;20191;-73
2022/02/17 08:30:55;;;;;;;7.47;2.67;;;12.30;70.20;;;;;;4986769;28;20447;-73
2022/02/17 08:33:21;;;;;;;11.83;2.60;;;12.30;70.40;;;;;;4970364;28;20938;-75
2022/02/17 08:35:46;;;;;;;6.40;1.90;;;12.40;70.70;;;;;;4971684;28;20210;-74
2022/02/17 08:38:13;;;;;;;49.30;6.57;;;12.40;70.10;;;;;;4981238;28;20290;-76
2022/02/17 08:40:40;;;;;;;14.83;2.57;;;12.30;69.10;;;;;;4977892;28;20202;-74
2022/02/17 08:43:09;;;;;;;19.17;3.40;;;12.30;67.60;;;;;;4976467;28;20504;-73
2022/02/17 08:45:40;;;;;;;10.90;2.10;;;12.30;67.20;;;;;;4974159;28;20415;-74
2022/02/17 08:48:06;;;;;;;12.03;2.90;;;12.20;67.30;;;;;;4982192;28;21272;-75
2022/02/17 08:50:34;;;;;;;10.83;2.60;;;12.30;67.60;;;;;;4973959;28;20428;-73
2022/02/17 08:52:59;;;;;;;7.33;2.57;;;12.20;67.70;;;;;;4988619;28;20437;-72
2022/02/17 08:55:26;;;;;;;12.20;2.70;;;12.20;68.00;;;;;;4984181;28;20444;-72
2022/02/17 08:57:53;;;;;;;103.23;9.23;;;12.30;68.20;;;;;;4973062;28;20219;-72
2022/02/17 09:00:20;;;;;;;7.43;2.00;;;12.30;67.20;;;;;;4985949;28;20414;-73
2022/02/17 09:02:45;;;;;;;8.40;2.07;;;12.30;67.00;;;;;;4980778;28;20425;-73
2022/02/17 09:05:11;;;;;;;19.33;3.33;;;12.30;66.70;;;;;;4983599;28;20509;-72
2022/02/17 09:07:37;;;;;;;15.00;2.80;;;12.40;66.30;;;;;;4983578;28;20197;-75
2022/02/17 09:10:04;;;;;;;13.23;2.43;;;12.40;66.40;;;;;;4984918;28;20241;-73
2022/02/17 09:12:37;;;;;;;26.77;3.13;;;12.50;65.60;;;;;;4974697;28;20214;-73
2022/02/17 09:15:05;;;;;;;8.30;2.90;;;12.50;65.80;;;;;;4969986;28;20514;-73
2022/02/17 09:17:33;;;;;;;68.30;8.80;;;12.50;65.80;;;;;;4979410;28;20462;-73
2022/02/17 09:19:59;;;;;;;9.53;2.40;;;12.60;64.50;;;;;;4987504;28;20430;-72
2022/02/17 09:22:25;;;;;;;14.20;2.53;;;12.50;62.80;;;;;;4979093;28;20441;-74
2022/02/17 09:24:51;;;;;;;17.63;2.60;;;12.60;62.60;;;;;;4976831;28;20193;-72
2022/02/17 09:27:17;;;;;;;18.27;2.90;;;12.60;62.00;;;;;;4979168;28;20213;-75
2022/02/17 09:29:43;;;;;;;14.03;3.00;;;12.70;62.00;;;;;;4973946;28;20198;-74
2022/02/17 09:32:10;;;;;;;10.47;3.00;;;12.80;60.00;;;;;;4980756;28;20541;-74
2022/02/17 09:34:37;;;;;;;10.30;3.13;;;12.80;59.10;;;;;;4985111;28;20839;-75
2022/02/17 09:37:04;;;;;;;14.53;2.80;;;12.80;57.20;;;;;;4975589;28;20475;-75
2022/02/17 09:39:33;;;;;;;16.27;3.30;;;12.90;56.80;;;;;;4979567;28;20492;-75
2022/02/17 09:55:12;;;;;;;17.47;4.73;;;12.70;57.00;;;;;;6000412;22;20395;-72
2022/02/17 09:57:41;;;;;;;10.60;2.70;;;12.70;57.30;;;;;;4977143;28;20480;-72
2022/02/17 10:00:09;;;;;;;10.83;2.63;;;12.60;57.80;;;;;;4978175;28;20442;-71
2022/02/17 10:02:35;;;;;;;14.07;3.60;;;12.60;57.70;;;;;;4988704;28;20438;-72
2022/02/17 10:05:04;;;;;;;10.40;3.50;;;12.60;58.40;;;;;;4987242;28;20495;-74
2022/02/17 10:07:30;;;;;;;15.77;4.20;;;12.60;58.70;;;;;;4965649;28;20179;-73
2022/02/17 10:10:05;;;;;;;11.30;3.03;;;12.60;59.50;;;;;;4964879;28;20437;-74
2022/02/17 10:12:51;;;;;;;15.73;3.03;;;12.60;59.60;;;;;;4966706;28;20429;-74
2022/02/17 10:15:34;;;;;;;16.70;3.37;;;12.70;58.40;;;;;;4958713;28;20489;-74
2022/02/17 10:18:01;;;;;;;8.93;2.50;;;12.90;57.80;;;;;;4963885;28;20520;-72
2022/02/17 10:20:27;;;;;;;10.13;2.60;;;12.90;57.60;;;;;;4961994;28;20438;-72
2022/02/17 10:22:53;;;;;;;16.10;2.90;;;12.90;58.00;;;;;;4964058;28;20519;-71
2022/02/17 10:25:19;;;;;;;20.17;2.93;;;12.60;59.60;;;;;;4961103;28;20510;-73
2022/02/17 10:27:45;;;;;;;13.50;2.70;;;12.50;61.30;;;;;;4959535;28;20200;-73
2022/02/17 10:30:19;;;;;;;13.73;3.07;;;12.40;63.20;;;;;;4962295;28;21022;-73
2022/02/17 10:33:03;;;;;;;8.03;2.70;;;12.40;64.50;;;;;;4953782;28;20439;-73
2022/02/17 10:35:29;;;;;;;14.00;3.20;;;12.10;67.20;;;;;;4955033;28;20454;-74
2022/02/17 10:37:57;;;;;;;15.43;3.90;;;11.90;67.50;;;;;;4965067;28;20891;-74
2022/02/17 10:40:24;;;;;;;8.97;2.50;;;12.00;67.90;;;;;;4963112;28;20787;-74
2022/02/17 10:43:06;;;;;;;12.97;3.00;;;12.10;67.50;;;;;;4959941;28;20483;-72
2022/02/17 10:45:32;;;;;;;9.57;2.83;;;12.00;67.60;;;;;;4969258;28;20965;-74
2022/02/17 10:48:18;;;;;;;13.63;3.40;;;12.00;67.50;;;;;;4955250;28;20490;-74
2022/02/17 10:51:01;;;;;;;15.67;3.80;;;12.00;66.90;;;;;;4961475;28;20518;-72
2022/02/17 10:53:26;;;;;;;13.20;2.90;;;12.10;66.10;;;;;;4966350;28;20431;-74
2022/02/17 10:56:00;;;;;;;16.23;3.50;;;12.30;66.10;;;;;;4960741;28;21003;-73
2022/02/17 10:58:31;;;;;;;13.60;3.20;;;12.50;64.50;;;;;;4972303;28;20198;-74
2022/02/17 11:00:58;;;;;;;8.87;2.83;;;12.50;64.80;;;;;;4969013;28;20449;-71
2022/02/17 11:03:29;;;;;;;7.00;2.20;;;12.60;63.50;;;;;;4973186;28;20425;-73
2022/02/17 11:05:55;;;;;;;9.53;2.63;;;12.70;63.20;;;;;;4960800;28;20975;-73
2022/02/17 11:08:22;;;;;;;24.83;4.30;;;12.80;62.30;;;;;;4967380;28;20483;-72
2022/02/17 11:10:47;;;;;;;7.63;2.50;;;12.90;61.00;;;;;;4965024;28;20861;-72
2022/02/17 11:13:23;;;;;;;9.93;2.67;;;13.20;60.40;;;;;;4969562;28;20506;-73
2022/02/17 11:15:50;;;;;;;14.50;3.10;;;13.30;59.90;;;;;;4963561;28;20210;-72
2022/02/17 11:18:19;;;;;;;11.10;3.27;;;13.40;58.70;;;;;;4965576;28;20428;-73
2022/02/17 11:20:47;;;;;;;9.83;3.07;;;13.50;58.40;;;;;;4967935;28;20411;-74
2022/02/17 11:23:18;;;;;;;19.40;3.70;;;13.50;56.90;;;;;;4961098;28;20539;-72
2022/02/17 11:25:45;;;;;;;20.37;3.80;;;13.50;56.50;;;;;;4975947;28;20958;-75
2022/02/17 11:28:34;;;;;;;18.27;3.67;;;13.50;56.00;;;;;;4970457;28;20423;-72
2022/02/17 11:31:03;;;;;;;12.40;3.47;;;13.50;55.20;;;;;;4980342;28;20421;-74
2022/02/17 11:33:33;;;;;;;14.50;3.00;;;13.50;55.30;;;;;;4986989;28;20478;-74
2022/02/17 11:36:08;;;;;;;10.93;3.17;;;13.60;54.40;;;;;;4967186;28;20467;-74
2022/02/17 11:38:36;;;;;;;16.13;3.23;;;13.70;51.80;;;;;;4970152;28;20425;-74
2022/02/17 11:41:19;;;;;;;11.40;3.10;;;13.30;52.50;;;;;;4970386;28;20795;-73
2022/02/17 11:43:50;;;;;;;14.43;3.03;;;13.00;53.40;;;;;;4971206;28;20916;-73
2022/02/17 11:46:41;;;;;;;9.37;2.87;;;12.90;54.60;;;;;;4985828;28;20438;-74
2022/02/17 11:49:39;;;;;;;12.70;4.00;;;13.20;54.10;;;;;;4977225;28;20442;-73
2022/02/17 11:52:10;;;;;;;11.73;3.47;;;13.10;53.60;;;;;;4962223;28;20816;-77
2022/02/17 11:54:36;;;;;;;30.50;4.43;;;12.90;54.00;;;;;;4976593;28;20760;-79
2022/02/17 11:57:02;;;;;;;8.27;2.40;;;13.00;53.80;;;;;;4976422;28;20477;-74
2022/02/17 11:59:36;;;;;;;9.03;3.47;;;13.20;54.00;;;;;;4974960;28;20182;-75
2022/02/17 12:02:08;;;;;;;12.37;2.83;;;13.20;53.40;;;;;;4966653;28;20943;-78
2022/02/17 12:04:38;;;;;;;14.43;4.30;;;13.50;53.70;;;;;;4968025;28;20422;-77
2022/02/17 12:07:27;;;;;;;12.53;3.27;;;13.60;52.50;;;;;;4976167;28;20544;-77
2022/02/17 12:09:54;;;;;;;17.57;3.50;;;13.60;52.60;;;;;;4968738;28;20788;-74
2022/02/17 12:12:25;;;;;;;19.30;3.53;;;13.70;52.90;;;;;;4974967;28;20779;-77
2022/02/17 12:14:59;;;;;;;18.03;5.57;;;13.70;52.90;;;;;;4972419;28;20435;-72
2022/02/17 12:17:40;;;;;;;9.57;2.70;;;13.40;53.60;;;;;;4965072;28;20523;-73
2022/02/17 12:20:18;;;;;;;22.57;4.87;;;13.40;54.10;;;;;;4967343;28;21073;-73
2022/02/17 12:22:49;;;;;;;14.10;3.20;;;13.40;54.80;;;;;;4961799;28;20438;-74
2022/02/17 12:25:15;;;;;;;15.23;3.33;;;13.50;55.40;;;;;;4981393;28;20519;-73
2022/02/17 12:27:45;;;;;;;18.23;3.77;;;13.60;54.90;;;;;;4969275;28;20434;-73
2022/02/17 12:30:11;;;;;;;12.10;4.03;;;13.50;54.40;;;;;;4973510;28;20281;-74
2022/02/17 12:32:37;;;;;;;11.80;3.00;;;13.40;54.20;;;;;;4973712;28;21178;-73
2022/02/17 12:35:03;;;;;;;12.90;4.43;;;13.40;54.40;;;;;;4977127;28;20478;-71
2022/02/17 12:37:29;;;;;;;9.53;3.10;;;13.60;54.00;;;;;;4968300;28;20211;-72
2022/02/17 12:39:54;;;;;;;10.67;3.23;;;13.70;54.00;;;;;;4981180;28;20765;-74
2022/02/17 12:42:21;;;;;;;13.70;3.33;;;13.70;52.40;;;;;;4990439;28;20183;-75
2022/02/17 12:44:51;;;;;;;8.90;2.87;;;13.80;51.80;;;;;;4967509;28;20187;-72
2022/02/17 12:47:17;;;;;;;10.47;2.83;;;14.00;52.00;;;;;;4987926;28;20429;-73
2022/02/17 12:49:43;;;;;;;16.70;3.80;;;13.90;52.00;;;;;;5003687;28;20422;-74
2022/02/17 12:52:10;;;;;;;12.40;3.20;;;13.80;52.80;;;;;;4976868;28;20430;-71
2022/02/17 12:54:38;;;;;;;29.27;4.23;;;13.80;52.50;;;;;;4964563;28;20484;-71
2022/02/17 12:57:05;;;;;;;13.03;3.00;;;13.70;52.00;;;;;;4970611;28;20481;-72
2022/02/17 12:59:31;;;;;;;17.93;4.03;;;13.60;51.40;;;;;;4964735;28;20487;-71